sensor_id;sensor_type;location;lat;lon;timestamp;pressure;altitude;pressure_sealevel;temperature;humidity
33075;BME280;19433;51.292;6.868;2023-03-03T00:00:41;101022.00;;;-0.84;100.00
33075;BME280;19433;51.292;6.868;2023-03-03T00:03:08;101024.19;;;-0.89;100.00
33075;BME280;19433;51.292;6.868;2023-03-03T00:05:35;101027.78;;;-0.89;100.00
33075;BME280;19433;51.292;6.868;2023-03-03T00:08:01;101023.66;;;-1.06;100.00
33075;BME280;19433;51.292;6.868;2023-03-03T00:10:26;101043.03;;;-0.99;100.00
33075;BME280;19433;51.292;6.868;2023-03-03T00:12:52;101031.53;;;-1.02;100.00
33075;BME280;19433;51.292;6.868;2023-03-03T00:15:20;101045.41;;;-0.94;100.00
33075;BME280;19433;51.292;6.868;2023-03-03T00:17:46;101041.97;;;-0.85;100.00
33075;BME280;19433;51.292;6.868;2023-03-03T00:20:24;101045.38;;;-0.59;100.00
33075;BME280;19433;51.292;6.868;2023-03-03T00:22:50;101024.53;;;-0.70;100.00
33075;BME280;19433;51.292;6.868;2023-03-03T00:25:30;101039.72;;;-0.56;100.00
33075;BME280;19433;51.292;6.868;2023-03-03T00:28:30;101040.81;;;-0.59;100.00
33075;BME280;19433;51.292;6.868;2023-03-03T00:31:00;101049.50;;;-0.43;100.00
33075;BME280;19433;51.292;6.868;2023-03-03T00:33:31;101045.09;;;-0.32;100.00
33075;BME280;19433;51.292;6.868;2023-03-03T00:36:09;101054.75;;;-0.17;100.00
33075;BME280;19433;51.292;6.868;2023-03-03T00:38:46;101054.25;;;-0.22;100.00
33075;BME280;19433;51.292;6.868;2023-03-03T00:41:26;101057.94;;;-0.23;100.00
33075;BME280;19433;51.292;6.868;2023-03-03T00:43:52;101052.75;;;-0.26;100.00
33075;BME280;19433;51.292;6.868;2023-03-03T00:46:20;101049.91;;;-0.25;100.00
33075;BME280;19433;51.292;6.868;2023-03-03T00:48:47;101059.53;;;-0.21;100.00
33075;BME280;19433;51.292;6.868;2023-03-03T00:53:42;101077.84;;;-0.01;100.00
33075;BME280;19433;51.292;6.868;2023-03-03T00:56:07;101067.19;;;-0.15;100.00
33075;BME280;19433;51.292;6.868;2023-03-03T00:58:32;101070.41;;;-0.10;100.00
33075;BME280;19433;51.292;6.868;2023-03-03T01:00:58;101072.50;;;-0.13;100.00
33075;BME280;19433;51.292;6.868;2023-03-03T01:03:24;101068.84;;;-0.01;100.00
33075;BME280;19433;51.292;6.868;2023-03-03T01:05:51;101069.19;;;-0.06;100.00
33075;BME280;19433;51.292;6.868;2023-03-03T01:08:17;101076.59;;;-0.19;100.00
33075;BME280;19433;51.292;6.868;2023-03-03T01:13:19;101087.56;;;-0.09;100.00
33075;BME280;19433;51.292;6.868;2023-03-03T01:15:46;101090.69;;;-0.03;100.00
33075;BME280;19433;51.292;6.868;2023-03-03T01:18:11;101068.56;;;-0.09;100.00
33075;BME280;19433;51.292;6.868;2023-03-03T01:20:38;101066.94;;;-0.23;100.00
33075;BME280;19433;51.292;6.868;2023-03-03T01:23:03;101071.53;;;-0.12;100.00
33075;BME280;19433;51.292;6.868;2023-03-03T01:25:29;101071.78;;;-0.04;100.00
33075;BME280;19433;51.292;6.868;2023-03-03T01:27:55;101086.47;;;-0.18;100.00
33075;BME280;19433;51.292;6.868;2023-03-03T01:30:21;101065.22;;;-0.24;100.00
33075;BME280;19433;51.292;6.868;2023-03-03T01:32:46;101089.53;;;-0.11;100.00
33075;BME280;19433;51.292;6.868;2023-03-03T01:35:12;101076.34;;;-0.16;100.00
33075;BME280;19433;51.292;6.868;2023-03-03T01:37:37;101069.66;;;-0.12;100.00
33075;BME280;19433;51.292;6.868;2023-03-03T01:40:05;101086.09;;;-0.13;100.00
33075;BME280;19433;51.292;6.868;2023-03-03T01:42:32;101097.22;;;-0.16;100.00
33075;BME280;19433;51.292;6.868;2023-03-03T01:45:13;101089.03;;;-0.27;100.00
33075;BME280;19433;51.292;6.868;2023-03-03T01:47:43;101087.78;;;-0.34;100.00
33075;BME280;19433;51.292;6.868;2023-03-03T01:50:18;101087.91;;;-0.25;100.00
33075;BME280;19433;51.292;6.868;2023-03-03T01:52:45;101091.38;;;-0.23;100.00
33075;BME280;19433;51.292;6.868;2023-03-03T01:55:21;101083.44;;;-0.37;100.00
33075;BME280;19433;51.292;6.868;2023-03-03T01:57:58;101092.81;;;-0.41;100.00
33075;BME280;19433;51.292;6.868;2023-03-03T02:00:25;101089.53;;;-0.22;100.00
33075;BME280;19433;51.292;6.868;2023-03-03T02:02:52;101089.66;;;-0.13;100.00
33075;BME280;19433;51.292;6.868;2023-03-03T02:05:18;101072.78;;;-0.16;100.00
33075;BME280;19433;51.292;6.868;2023-03-03T02:07:44;101064.84;;;-0.19;100.00
33075;BME280;19433;51.292;6.868;2023-03-03T02:10:15;101072.25;;;-0.32;100.00
33075;BME280;19433;51.292;6.868;2023-03-03T02:12:47;101076.19;;;-0.25;100.00
33075;BME280;19433;51.292;6.868;2023-03-03T02:15:24;101079.78;;;-0.25;100.00
33075;BME280;19433;51.292;6.868;2023-03-03T02:17:57;101072.03;;;-0.18;100.00
33075;BME280;19433;51.292;6.868;2023-03-03T02:25:38;101073.22;;;-0.33;100.00
33075;BME280;19433;51.292;6.868;2023-03-03T02:28:05;101073.50;;;-0.14;100.00
33075;BME280;19433;51.292;6.868;2023-03-03T02:30:36;101079.06;;;-0.16;100.00
33075;BME280;19433;51.292;6.868;2023-03-03T02:33:02;101076.34;;;-0.05;100.00
33075;BME280;19433;51.292;6.868;2023-03-03T02:35:34;101072.53;;;-0.02;100.00
33075;BME280;19433;51.292;6.868;2023-03-03T02:38:17;101071.00;;;-0.28;100.00
33075;BME280;19433;51.292;6.868;2023-03-03T02:40:51;101065.84;;;-0.20;100.00
33075;BME280;19433;51.292;6.868;2023-03-03T02:43:22;101073.75;;;-0.17;100.00
33075;BME280;19433;51.292;6.868;2023-03-03T02:45:50;101072.03;;;0.04;100.00
33075;BME280;19433;51.292;6.868;2023-03-03T02:48:15;101067.34;;;-0.05;100.00
33075;BME280;19433;51.292;6.868;2023-03-03T02:50:40;101072.66;;;0.19;100.00
33075;BME280;19433;51.292;6.868;2023-03-03T02:53:05;101086.94;;;-0.13;100.00
33075;BME280;19433;51.292;6.868;2023-03-03T02:55:31;101080.16;;;-0.18;100.00
33075;BME280;19433;51.292;6.868;2023-03-03T02:57:56;101092.66;;;-0.16;100.00
33075;BME280;19433;51.292;6.868;2023-03-03T03:00:21;101104.09;;;-0.12;100.00
33075;BME280;19433;51.292;6.868;2023-03-03T03:02:46;101090.91;;;-0.17;100.00
33075;BME280;19433;51.292;6.868;2023-03-03T03:05:12;101102.16;;;0.01;100.00
33075;BME280;19433;51.292;6.868;2023-03-03T03:07:37;101102.03;;;-0.09;100.00
33075;BME280;19433;51.292;6.868;2023-03-03T03:10:03;101106.34;;;-0.06;100.00
33075;BME280;19433;51.292;6.868;2023-03-03T03:12:28;101102.53;;;0.08;100.00
33075;BME280;19433;51.292;6.868;2023-03-03T03:14:54;101102.53;;;-0.04;100.00
33075;BME280;19433;51.292;6.868;2023-03-03T03:17:21;101102.19;;;0.12;100.00
33075;BME280;19433;51.292;6.868;2023-03-03T03:19:46;101104.78;;;0.25;100.00
33075;BME280;19433;51.292;6.868;2023-03-03T03:22:12;101089.94;;;0.18;100.00
33075;BME280;19433;51.292;6.868;2023-03-03T03:24:37;101096.25;;;-0.04;100.00
33075;BME280;19433;51.292;6.868;2023-03-03T03:27:02;101103.88;;;0.02;100.00
33075;BME280;19433;51.292;6.868;2023-03-03T03:29:28;101112.78;;;-0.07;100.00
33075;BME280;19433;51.292;6.868;2023-03-03T03:31:53;101113.63;;;-0.07;100.00
33075;BME280;19433;51.292;6.868;2023-03-03T03:34:18;101111.28;;;-0.11;100.00
33075;BME280;19433;51.292;6.868;2023-03-03T03:36:43;101106.88;;;-0.01;100.00
33075;BME280;19433;51.292;6.868;2023-03-03T03:39:11;101110.53;;;-0.13;100.00
33075;BME280;19433;51.292;6.868;2023-03-03T03:41:36;101087.69;;;-0.22;100.00
33075;BME280;19433;51.292;6.868;2023-03-03T03:44:01;101102.50;;;-0.15;100.00
33075;BME280;19433;51.292;6.868;2023-03-03T03:46:27;101114.38;;;-0.16;100.00
33075;BME280;19433;51.292;6.868;2023-03-03T03:48:52;101102.72;;;-0.29;100.00
33075;BME280;19433;51.292;6.868;2023-03-03T03:51:17;101121.22;;;-0.34;100.00
33075;BME280;19433;51.292;6.868;2023-03-03T03:53:43;101111.97;;;-0.31;100.00
33075;BME280;19433;51.292;6.868;2023-03-03T03:56:08;101116.41;;;-0.30;100.00
33075;BME280;19433;51.292;6.868;2023-03-03T03:58:33;101111.16;;;-0.10;100.00
33075;BME280;19433;51.292;6.868;2023-03-03T04:01:04;101110.03;;;-0.18;100.00
33075;BME280;19433;51.292;6.868;2023-03-03T04:03:29;101100.03;;;-0.18;100.00
33075;BME280;19433;51.292;6.868;2023-03-03T04:05:55;101109.53;;;-0.23;100.00
33075;BME280;19433;51.292;6.868;2023-03-03T04:08:20;101100.25;;;-0.32;100.00
33075;BME280;19433;51.292;6.868;2023-03-03T04:10:45;101107.06;;;-0.15;100.00
33075;BME280;19433;51.292;6.868;2023-03-03T04:13:11;101101.03;;;-0.08;100.00
33075;BME280;19433;51.292;6.868;2023-03-03T04:15:36;101115.66;;;0.14;100.00
33075;BME280;19433;51.292;6.868;2023-03-03T04:18:02;101129.34;;;0.12;100.00
33075;BME280;19433;51.292;6.868;2023-03-03T04:20:28;101122.53;;;-0.05;100.00
33075;BME280;19433;51.292;6.868;2023-03-03T04:22:53;101125.94;;;-0.25;100.00
33075;BME280;19433;51.292;6.868;2023-03-03T04:25:19;101121.59;;;-0.27;100.00
33075;BME280;19433;51.292;6.868;2023-03-03T04:27:44;101118.06;;;-0.17;100.00
33075;BME280;19433;51.292;6.868;2023-03-03T04:30:11;101132.84;;;-0.32;100.00
33075;BME280;19433;51.292;6.868;2023-03-03T04:32:38;101116.28;;;-0.29;100.00
33075;BME280;19433;51.292;6.868;2023-03-03T04:35:05;101116.44;;;-0.19;100.00
33075;BME280;19433;51.292;6.868;2023-03-03T04:37:30;101115.94;;;-0.13;100.00
33075;BME280;19433;51.292;6.868;2023-03-03T04:39:56;101116.75;;;-0.46;100.00
33075;BME280;19433;51.292;6.868;2023-03-03T04:42:21;101126.66;;;-0.34;100.00
33075;BME280;19433;51.292;6.868;2023-03-03T04:44:46;101103.19;;;-0.35;100.00
33075;BME280;19433;51.292;6.868;2023-03-03T04:47:11;101117.75;;;-0.36;100.00
33075;BME280;19433;51.292;6.868;2023-03-03T04:49:37;101128.41;;;-0.22;100.00
33075;BME280;19433;51.292;6.868;2023-03-03T04:52:03;101132.50;;;-0.16;100.00
33075;BME280;19433;51.292;6.868;2023-03-03T04:54:28;101128.00;;;-0.28;100.00
33075;BME280;19433;51.292;6.868;2023-03-03T04:56:53;101119.72;;;-0.38;100.00
33075;BME280;19433;51.292;6.868;2023-03-03T04:59:18;101128.28;;;-0.55;100.00
33075;BME280;19433;51.292;6.868;2023-03-03T05:01:44;101139.91;;;-0.18;100.00
33075;BME280;19433;51.292;6.868;2023-03-03T05:04:10;101123.50;;;-0.52;100.00
33075;BME280;19433;51.292;6.868;2023-03-03T05:06:36;101126.75;;;-0.71;100.00
33075;BME280;19433;51.292;6.868;2023-03-03T05:09:01;101131.75;;;-0.53;100.00
33075;BME280;19433;51.292;6.868;2023-03-03T05:11:26;101109.38;;;-0.68;100.00
33075;BME280;19433;51.292;6.868;2023-03-03T05:13:52;101139.31;;;-0.46;100.00
33075;BME280;19433;51.292;6.868;2023-03-03T05:16:17;101147.28;;;-0.31;100.00
33075;BME280;19433;51.292;6.868;2023-03-03T05:18:42;101138.16;;;-0.54;100.00
33075;BME280;19433;51.292;6.868;2023-03-03T05:21:07;101133.69;;;-0.66;100.00
33075;BME280;19433;51.292;6.868;2023-03-03T05:23:33;101128.72;;;-0.73;100.00
33075;BME280;19433;51.292;6.868;2023-03-03T05:25:58;101128.25;;;-0.66;100.00
33075;BME280;19433;51.292;6.868;2023-03-03T05:28:23;101139.06;;;-0.43;100.00
33075;BME280;19433;51.292;6.868;2023-03-03T05:30:49;101125.28;;;-0.40;100.00
33075;BME280;19433;51.292;6.868;2023-03-03T05:33:16;101127.75;;;-0.37;100.00
33075;BME280;19433;51.292;6.868;2023-03-03T05:35:42;101130.06;;;-0.43;100.00
33075;BME280;19433;51.292;6.868;2023-03-03T05:38:07;101144.16;;;-0.38;100.00
33075;BME280;19433;51.292;6.868;2023-03-03T05:40:32;101140.91;;;-0.43;100.00
33075;BME280;19433;51.292;6.868;2023-03-03T05:42:58;101143.41;;;-0.40;100.00
33075;BME280;19433;51.292;6.868;2023-03-03T05:45:23;101129.81;;;-0.75;100.00
33075;BME280;19433;51.292;6.868;2023-03-03T05:47:50;101153.94;;;-0.83;100.00
33075;BME280;19433;51.292;6.868;2023-03-03T05:50:16;101145.84;;;-0.72;100.00
33075;BME280;19433;51.292;6.868;2023-03-03T05:52:41;101144.91;;;-0.60;100.00
33075;BME280;19433;51.292;6.868;2023-03-03T05:55:07;101137.63;;;-0.59;100.00
33075;BME280;19433;51.292;6.868;2023-03-03T05:57:32;101148.94;;;-0.42;100.00
33075;BME280;19433;51.292;6.868;2023-03-03T06:00:00;101139.94;;;-0.42;100.00
33075;BME280;19433;51.292;6.868;2023-03-03T06:02:25;101128.22;;;-0.43;100.00
33075;BME280;19433;51.292;6.868;2023-03-03T06:04:50;101149.16;;;-0.45;100.00
33075;BME280;19433;51.292;6.868;2023-03-03T06:07:16;101153.88;;;-0.47;100.00
33075;BME280;19433;51.292;6.868;2023-03-03T06:09:41;101164.47;;;-0.44;100.00
33075;BME280;19433;51.292;6.868;2023-03-03T06:12:06;101165.47;;;-0.45;100.00
33075;BME280;19433;51.292;6.868;2023-03-03T06:14:32;101168.06;;;-0.43;100.00
33075;BME280;19433;51.292;6.868;2023-03-03T06:16:57;101161.56;;;-0.64;100.00
33075;BME280;19433;51.292;6.868;2023-03-03T06:19:23;101180.59;;;-0.53;100.00
33075;BME280;19433;51.292;6.868;2023-03-03T06:21:48;101171.13;;;-0.72;100.00
33075;BME280;19433;51.292;6.868;2023-03-03T06:24:13;101179.59;;;-0.63;100.00
33075;BME280;19433;51.292;6.868;2023-03-03T06:26:39;101182.97;;;-0.73;100.00
33075;BME280;19433;51.292;6.868;2023-03-03T06:29:04;101175.91;;;-0.75;100.00
33075;BME280;19433;51.292;6.868;2023-03-03T06:31:29;101186.84;;;-0.64;100.00
33075;BME280;19433;51.292;6.868;2023-03-03T06:33:55;101188.88;;;-0.55;100.00
33075;BME280;19433;51.292;6.868;2023-03-03T06:36:20;101199.28;;;-0.49;100.00
33075;BME280;19433;51.292;6.868;2023-03-03T06:38:45;101186.84;;;-0.64;100.00
33075;BME280;19433;51.292;6.868;2023-03-03T06:41:11;101202.72;;;-0.47;100.00
33075;BME280;19433;51.292;6.868;2023-03-03T06:43:37;101207.28;;;-0.47;100.00
33075;BME280;19433;51.292;6.868;2023-03-03T06:46:04;101206.47;;;-0.60;100.00
33075;BME280;19433;51.292;6.868;2023-03-03T06:48:30;101214.19;;;-0.43;100.00
33075;BME280;19433;51.292;6.868;2023-03-03T06:51:00;101208.09;;;-0.58;100.00
33075;BME280;19433;51.292;6.868;2023-03-03T06:53:27;101203.81;;;-0.49;100.00
33075;BME280;19433;51.292;6.868;2023-03-03T06:55:54;101214.13;;;-0.30;100.00
33075;BME280;19433;51.292;6.868;2023-03-03T06:58:21;101214.84;;;-0.40;100.00
33075;BME280;19433;51.292;6.868;2023-03-03T07:00:59;101218.19;;;-0.60;100.00
33075;BME280;19433;51.292;6.868;2023-03-03T07:03:27;101219.91;;;-0.59;100.00
33075;BME280;19433;51.292;6.868;2023-03-03T07:05:56;101222.19;;;-0.53;100.00
33075;BME280;19433;51.292;6.868;2023-03-03T07:08:23;101217.22;;;-0.35;100.00
33075;BME280;19433;51.292;6.868;2023-03-03T07:10:50;101226.53;;;-0.15;100.00
33075;BME280;19433;51.292;6.868;2023-03-03T07:13:23;101219.84;;;-0.22;100.00
33075;BME280;19433;51.292;6.868;2023-03-03T07:15:50;101230.31;;;-0.29;100.00
33075;BME280;19433;51.292;6.868;2023-03-03T07:21:16;101226.63;;;-0.52;100.00
33075;BME280;19433;51.292;6.868;2023-03-03T07:23:43;101220.72;;;-0.46;100.00
33075;BME280;19433;51.292;6.868;2023-03-03T07:26:11;101230.00;;;-0.13;100.00
33075;BME280;19433;51.292;6.868;2023-03-03T07:28:40;101237.97;;;0.01;100.00
33075;BME280;19433;51.292;6.868;2023-03-03T07:31:19;101235.41;;;0.11;100.00
33075;BME280;19433;51.292;6.868;2023-03-03T07:33:49;101235.97;;;-0.08;100.00
33075;BME280;19433;51.292;6.868;2023-03-03T07:38:54;101238.97;;;0.00;100.00
33075;BME280;19433;51.292;6.868;2023-03-03T07:41:21;101252.81;;;0.08;100.00
33075;BME280;19433;51.292;6.868;2023-03-03T07:46:33;101251.38;;;0.15;100.00
33075;BME280;19433;51.292;6.868;2023-03-03T07:49:20;101244.31;;;-0.22;100.00
33075;BME280;19433;51.292;6.868;2023-03-03T07:51:46;101256.28;;;-0.14;100.00
33075;BME280;19433;51.292;6.868;2023-03-03T07:54:39;101257.53;;;-0.18;100.00
33075;BME280;19433;51.292;6.868;2023-03-03T07:59:37;101274.34;;;0.22;100.00
33075;BME280;19433;51.292;6.868;2023-03-03T08:02:15;101265.78;;;-0.19;100.00
33075;BME280;19433;51.292;6.868;2023-03-03T08:04:48;101270.50;;;-0.10;100.00
33075;BME280;19433;51.292;6.868;2023-03-03T08:07:17;101276.75;;;0.03;100.00
33075;BME280;19433;51.292;6.868;2023-03-03T08:09:47;101270.41;;;0.26;100.00
33075;BME280;19433;51.292;6.868;2023-03-03T08:12:30;101275.53;;;0.07;100.00
33075;BME280;19433;51.292;6.868;2023-03-03T08:15:01;101293.81;;;0.16;100.00
33075;BME280;19433;51.292;6.868;2023-03-03T08:17:35;101290.47;;;-0.22;100.00
33075;BME280;19433;51.292;6.868;2023-03-03T08:20:24;101292.19;;;-0.21;100.00
33075;BME280;19433;51.292;6.868;2023-03-03T08:22:53;101278.72;;;-0.23;100.00
33075;BME280;19433;51.292;6.868;2023-03-03T08:25:18;101282.59;;;-0.14;100.00
33075;BME280;19433;51.292;6.868;2023-03-03T08:27:43;101296.06;;;0.11;100.00
33075;BME280;19433;51.292;6.868;2023-03-03T08:30:09;101305.88;;;0.01;100.00
33075;BME280;19433;51.292;6.868;2023-03-03T08:32:34;101286.13;;;0.34;100.00
33075;BME280;19433;51.292;6.868;2023-03-03T08:35:00;101293.81;;;0.51;100.00
33075;BME280;19433;51.292;6.868;2023-03-03T08:37:25;101310.44;;;0.82;100.00
33075;BME280;19433;51.292;6.868;2023-03-03T08:39:50;101318.50;;;0.94;100.00
33075;BME280;19433;51.292;6.868;2023-03-03T08:42:15;101310.94;;;0.76;100.00
33075;BME280;19433;51.292;6.868;2023-03-03T08:44:41;101312.00;;;0.62;100.00
33075;BME280;19433;51.292;6.868;2023-03-03T08:47:06;101313.28;;;0.80;100.00
33075;BME280;19433;51.292;6.868;2023-03-03T08:49:31;101309.56;;;0.81;100.00
33075;BME280;19433;51.292;6.868;2023-03-03T08:51:56;101316.28;;;0.99;100.00
33075;BME280;19433;51.292;6.868;2023-03-03T08:54:22;101319.34;;;0.95;100.00
33075;BME280;19433;51.292;6.868;2023-03-03T08:56:47;101313.16;;;0.82;100.00
33075;BME280;19433;51.292;6.868;2023-03-03T08:59:12;101325.03;;;0.92;100.00
33075;BME280;19433;51.292;6.868;2023-03-03T09:01:37;101325.81;;;1.05;100.00
33075;BME280;19433;51.292;6.868;2023-03-03T09:04:03;101330.63;;;1.13;100.00
33075;BME280;19433;51.292;6.868;2023-03-03T09:06:28;101324.94;;;1.04;100.00
33075;BME280;19433;51.292;6.868;2023-03-03T09:08:54;101324.19;;;0.91;100.00
33075;BME280;19433;51.292;6.868;2023-03-03T09:11:27;101329.38;;;0.94;100.00
33075;BME280;19433;51.292;6.868;2023-03-03T09:14:06;101326.31;;;0.42;100.00
33075;BME280;19433;51.292;6.868;2023-03-03T09:16:41;101328.72;;;0.80;100.00
33075;BME280;19433;51.292;6.868;2023-03-03T09:19:29;101331.63;;;0.43;100.00
33075;BME280;19433;51.292;6.868;2023-03-03T09:22:00;101335.31;;;0.99;100.00
33075;BME280;19433;51.292;6.868;2023-03-03T09:24:28;101347.22;;;1.21;100.00
33075;BME280;19433;51.292;6.868;2023-03-03T09:26:54;101344.34;;;1.22;100.00
33075;BME280;19433;51.292;6.868;2023-03-03T09:29:26;101334.09;;;1.03;100.00
33075;BME280;19433;51.292;6.868;2023-03-03T09:32:25;101345.16;;;0.67;100.00
33075;BME280;19433;51.292;6.868;2023-03-03T09:34:54;101345.22;;;0.89;100.00
33075;BME280;19433;51.292;6.868;2023-03-03T09:37:26;101350.34;;;0.70;100.00
33075;BME280;19433;51.292;6.868;2023-03-03T09:39:56;101354.72;;;0.84;100.00
33075;BME280;19433;51.292;6.868;2023-03-03T09:42:27;101352.91;;;1.07;100.00
33075;BME280;19433;51.292;6.868;2023-03-03T09:51:12;101355.53;;;1.53;100.00
33075;BME280;19433;51.292;6.868;2023-03-03T09:54:01;101360.97;;;1.19;100.00
33075;BME280;19433;51.292;6.868;2023-03-03T09:56:33;101361.81;;;1.64;100.00
33075;BME280;19433;51.292;6.868;2023-03-03T10:05:20;101368.38;;;1.62;100.00
33075;BME280;19433;51.292;6.868;2023-03-03T10:10:45;101370.72;;;1.77;100.00
33075;BME280;19433;51.292;6.868;2023-03-03T10:19:06;101373.88;;;2.05;96.38
33075;BME280;19433;51.292;6.868;2023-03-03T10:21:49;101359.56;;;2.56;96.01
33075;BME280;19433;51.292;6.868;2023-03-03T10:24:29;101371.59;;;2.53;94.38
33075;BME280;19433;51.292;6.868;2023-03-03T10:33:01;101371.91;;;2.39;92.39
33075;BME280;19433;51.292;6.868;2023-03-03T10:38:51;101379.91;;;2.52;94.10
33075;BME280;19433;51.292;6.868;2023-03-03T10:47:08;101374.41;;;2.31;96.18
33075;BME280;19433;51.292;6.868;2023-03-03T11:05:48;101379.72;;;2.32;93.37
33075;BME280;19433;51.292;6.868;2023-03-03T11:08:34;101377.78;;;2.23;95.21
33075;BME280;19433;51.292;6.868;2023-03-03T11:11:22;101369.88;;;2.52;91.78
33075;BME280;19433;51.292;6.868;2023-03-03T11:14:06;101373.88;;;3.10;92.95
33075;BME280;19433;51.292;6.868;2023-03-03T11:16:42;101389.44;;;3.40;89.78
33075;BME280;19433;51.292;6.868;2023-03-03T11:19:33;101391.38;;;3.49;86.77
33075;BME280;19433;51.292;6.868;2023-03-03T11:22:20;101368.94;;;3.25;89.14
33075;BME280;19433;51.292;6.868;2023-03-03T11:27:43;101374.88;;;3.61;86.98
33075;BME280;19433;51.292;6.868;2023-03-03T11:30:29;101366.66;;;3.51;89.66
33075;BME280;19433;51.292;6.868;2023-03-03T11:33:06;101369.00;;;3.65;88.61
33075;BME280;19433;51.292;6.868;2023-03-03T11:36:24;101354.16;;;4.08;86.57
33075;BME280;19433;51.292;6.868;2023-03-03T11:38:53;101369.69;;;4.17;87.44
33075;BME280;19433;51.292;6.868;2023-03-03T11:46:59;101356.56;;;3.92;86.59
33075;BME280;19433;51.292;6.868;2023-03-03T11:49:44;101369.81;;;4.06;84.13
33075;BME280;19433;51.292;6.868;2023-03-03T11:52:23;101361.81;;;3.64;85.76
33075;BME280;19433;51.292;6.868;2023-03-03T11:55:18;101363.72;;;3.83;87.64
33075;BME280;19433;51.292;6.868;2023-03-03T11:57:57;101355.06;;;4.28;83.63
33075;BME280;19433;51.292;6.868;2023-03-03T12:00:53;101352.09;;;4.00;86.22
33075;BME280;19433;51.292;6.868;2023-03-03T12:03:30;101362.41;;;4.66;82.76
33075;BME280;19433;51.292;6.868;2023-03-03T12:09:08;101344.25;;;4.55;81.57
33075;BME280;19433;51.292;6.868;2023-03-03T12:11:47;101343.22;;;4.75;83.63
33075;BME280;19433;51.292;6.868;2023-03-03T12:17:05;101335.19;;;4.54;80.77
33075;BME280;19433;51.292;6.868;2023-03-03T12:19:57;101349.38;;;5.16;81.18
33075;BME280;19433;51.292;6.868;2023-03-03T12:22:33;101341.16;;;5.53;78.81
33075;BME280;19433;51.292;6.868;2023-03-03T12:27:47;101334.47;;;4.72;81.40
33075;BME280;19433;51.292;6.868;2023-03-03T12:35:40;101334.56;;;5.46;76.67
33075;BME280;19433;51.292;6.868;2023-03-03T12:40:45;101325.19;;;5.48;75.89
33075;BME280;19433;51.292;6.868;2023-03-03T12:43:31;101325.41;;;5.55;78.87
33075;BME280;19433;51.292;6.868;2023-03-03T12:49:00;101324.47;;;7.41;70.28
33075;BME280;19433;51.292;6.868;2023-03-03T12:51:37;101333.53;;;7.08;68.37
33075;BME280;19433;51.292;6.868;2023-03-03T12:56:52;101334.34;;;6.12;72.22
33075;BME280;19433;51.292;6.868;2023-03-03T13:04:40;101316.66;;;5.05;75.50
33075;BME280;19433;51.292;6.868;2023-03-03T13:07:25;101322.59;;;5.00;77.98
33075;BME280;19433;51.292;6.868;2023-03-03T13:10:11;101325.47;;;6.89;74.10
33075;BME280;19433;51.292;6.868;2023-03-03T13:12:44;101332.47;;;8.53;66.29
33075;BME280;19433;51.292;6.868;2023-03-03T13:15:24;101325.81;;;8.13;63.93
33075;BME280;19433;51.292;6.868;2023-03-03T13:17:57;101339.84;;;7.26;64.62
33075;BME280;19433;51.292;6.868;2023-03-03T13:24:03;101331.94;;;6.09;71.41
33075;BME280;19433;51.292;6.868;2023-03-03T13:26:32;101331.81;;;8.84;64.56
33075;BME280;19433;51.292;6.868;2023-03-03T13:31:46;101333.97;;;11.52;51.25
33075;BME280;19433;51.292;6.868;2023-03-03T13:40:18;101325.75;;;8.48;57.72
33075;BME280;19433;51.292;6.868;2023-03-03T13:42:52;101322.16;;;6.42;66.56
33075;BME280;19433;51.292;6.868;2023-03-03T13:45:29;101329.59;;;6.31;69.07
33075;BME280;19433;51.292;6.868;2023-03-03T13:56:20;101315.59;;;9.13;58.00
33075;BME280;19433;51.292;6.868;2023-03-03T13:59:04;101312.56;;;10.79;52.84
33075;BME280;19433;51.292;6.868;2023-03-03T14:06:49;101304.59;;;8.80;57.07
33075;BME280;19433;51.292;6.868;2023-03-03T14:09:26;101303.53;;;9.14;58.18
33075;BME280;19433;51.292;6.868;2023-03-03T14:15:14;101313.41;;;9.47;56.69
33075;BME280;19433;51.292;6.868;2023-03-03T14:20:40;101300.03;;;10.23;53.50
33075;BME280;19433;51.292;6.868;2023-03-03T14:28:25;101293.94;;;9.57;55.89
33075;BME280;19433;51.292;6.868;2023-03-03T14:30:54;101293.84;;;9.26;59.10
33075;BME280;19433;51.292;6.868;2023-03-03T14:33:22;101300.91;;;11.06;52.49
33075;BME280;19433;51.292;6.868;2023-03-03T14:36:01;101297.88;;;11.16;51.16
33075;BME280;19433;51.292;6.868;2023-03-03T14:43:38;101281.13;;;10.34;52.65
33075;BME280;19433;51.292;6.868;2023-03-03T14:48:52;101272.75;;;11.03;50.98
33075;BME280;19433;51.292;6.868;2023-03-03T14:51:24;101259.22;;;10.33;51.62
33075;BME280;19433;51.292;6.868;2023-03-03T14:53:50;101266.19;;;9.50;55.24
33075;BME280;19433;51.292;6.868;2023-03-03T14:56:24;101262.28;;;7.91;58.60
33075;BME280;19433;51.292;6.868;2023-03-03T14:58:52;101260.53;;;6.18;66.36
33075;BME280;19433;51.292;6.868;2023-03-03T15:01:28;101258.25;;;5.69;69.26
33075;BME280;19433;51.292;6.868;2023-03-03T15:06:45;101250.34;;;5.93;70.12
33075;BME280;19433;51.292;6.868;2023-03-03T15:11:57;101251.22;;;5.84;70.85
33075;BME280;19433;51.292;6.868;2023-03-03T15:14:37;101239.22;;;5.94;70.34
33075;BME280;19433;51.292;6.868;2023-03-03T15:17:34;101244.81;;;6.90;67.85
33075;BME280;19433;51.292;6.868;2023-03-03T15:20:02;101254.06;;;6.89;69.08
33075;BME280;19433;51.292;6.868;2023-03-03T15:22:41;101251.09;;;7.08;67.59
33075;BME280;19433;51.292;6.868;2023-03-03T15:25:16;101256.81;;;6.89;67.49
33075;BME280;19433;51.292;6.868;2023-03-03T15:28:12;101244.38;;;6.51;69.35
33075;BME280;19433;51.292;6.868;2023-03-03T15:30:50;101244.38;;;6.33;69.52
33075;BME280;19433;51.292;6.868;2023-03-03T15:33:23;101239.59;;;5.54;71.58
33075;BME280;19433;51.292;6.868;2023-03-03T15:35:57;101223.59;;;4.95;75.65
33075;BME280;19433;51.292;6.868;2023-03-03T15:44:14;101226.16;;;5.61;74.37
33075;BME280;19433;51.292;6.868;2023-03-03T15:49:30;101225.59;;;5.57;73.86
33075;BME280;19433;51.292;6.868;2023-03-03T15:52:23;101215.28;;;5.42;75.65